sensor_id;sensor_type;location;lat;lon;timestamp;P1;durP1;ratioP1;P2;durP2;ratioP2
55756;SDS011;41676;44.610;44.078;2023-02-28T00:00:45;24.15;;;9.98;;
55756;SDS011;41676;44.610;44.078;2023-02-28T00:05:46;19.40;;;9.10;;
55756;SDS011;41676;44.610;44.078;2023-02-28T00:10:46;15.77;;;8.30;;
55756;SDS011;41676;44.610;44.078;2023-02-28T00:15:47;15.43;;;7.38;;
55756;SDS011;41676;44.610;44.078;2023-02-28T00:20:48;14.85;;;8.18;;
55756;SDS011;41676;44.610;44.078;2023-02-28T00:25:48;14.95;;;7.50;;
55756;SDS011;41676;44.610;44.078;2023-02-28T00:30:50;19.63;;;8.73;;
55756;SDS011;41676;44.610;44.078;2023-02-28T00:35:51;25.15;;;11.35;;
55756;SDS011;41676;44.610;44.078;2023-02-28T00:40:52;20.35;;;9.82;;
55756;SDS011;41676;44.610;44.078;2023-02-28T00:45:53;19.70;;;10.98;;
55756;SDS011;41676;44.610;44.078;2023-02-28T00:50:53;70.43;;;21.83;;
55756;SDS011;41676;44.610;44.078;2023-02-28T00:55:54;19.20;;;11.10;;
55756;SDS011;41676;44.610;44.078;2023-02-28T01:00:55;223.77;;;60.50;;
55756;SDS011;41676;44.610;44.078;2023-02-28T01:05:56;84.25;;;26.40;;
55756;SDS011;41676;44.610;44.078;2023-02-28T01:10:57;36.03;;;14.07;;
55756;SDS011;41676;44.610;44.078;2023-02-28T01:15:58;30.58;;;12.35;;
55756;SDS011;41676;44.610;44.078;2023-02-28T01:21:09;18.63;;;10.05;;
55756;SDS011;41676;44.610;44.078;2023-02-28T01:31:20;15.68;;;8.90;;
55756;SDS011;41676;44.610;44.078;2023-02-28T01:36:22;17.50;;;10.13;;
55756;SDS011;41676;44.610;44.078;2023-02-28T01:41:25;13.65;;;8.65;;
55756;SDS011;41676;44.610;44.078;2023-02-28T01:46:29;14.80;;;9.05;;
55756;SDS011;41676;44.610;44.078;2023-02-28T01:51:33;14.38;;;8.88;;
55756;SDS011;41676;44.610;44.078;2023-02-28T01:56:52;15.20;;;8.85;;
55756;SDS011;41676;44.610;44.078;2023-02-28T02:02:01;14.35;;;9.05;;
55756;SDS011;41676;44.610;44.078;2023-02-28T02:07:02;16.35;;;10.07;;
55756;SDS011;41676;44.610;44.078;2023-02-28T02:12:08;19.10;;;10.23;;
55756;SDS011;41676;44.610;44.078;2023-02-28T02:17:28;14.75;;;9.10;;
55756;SDS011;41676;44.610;44.078;2023-02-28T02:22:52;15.55;;;10.05;;
55756;SDS011;41676;44.610;44.078;2023-02-28T02:38:50;20.25;;;9.68;;
55756;SDS011;41676;44.610;44.078;2023-02-28T02:49:08;21.25;;;9.93;;
55756;SDS011;41676;44.610;44.078;2023-02-28T02:54:15;15.18;;;8.52;;
55756;SDS011;41676;44.610;44.078;2023-02-28T02:59:21;17.25;;;10.57;;
55756;SDS011;41676;44.610;44.078;2023-02-28T03:04:24;18.33;;;9.05;;
55756;SDS011;41676;44.610;44.078;2023-02-28T03:09:32;23.02;;;11.45;;
55756;SDS011;41676;44.610;44.078;2023-02-28T03:14:37;21.47;;;10.30;;
55756;SDS011;41676;44.610;44.078;2023-02-28T03:19:51;18.15;;;9.45;;
55756;SDS011;41676;44.610;44.078;2023-02-28T03:25:08;19.45;;;9.20;;
55756;SDS011;41676;44.610;44.078;2023-02-28T03:35:40;14.52;;;8.02;;
55756;SDS011;41676;44.610;44.078;2023-02-28T03:40:50;14.93;;;8.65;;
55756;SDS011;41676;44.610;44.078;2023-02-28T03:45:56;18.08;;;10.70;;
55756;SDS011;41676;44.610;44.078;2023-02-28T03:51:00;22.48;;;10.95;;
55756;SDS011;41676;44.610;44.078;2023-02-28T03:56:11;20.55;;;10.23;;
55756;SDS011;41676;44.610;44.078;2023-02-28T04:06:26;17.67;;;8.95;;
55756;SDS011;41676;44.610;44.078;2023-02-28T04:11:29;18.63;;;10.38;;
55756;SDS011;41676;44.610;44.078;2023-02-28T04:16:38;17.23;;;8.95;;
55756;SDS011;41676;44.610;44.078;2023-02-28T04:21:42;16.50;;;9.63;;
55756;SDS011;41676;44.610;44.078;2023-02-28T04:26:46;25.30;;;9.23;;
55756;SDS011;41676;44.610;44.078;2023-02-28T04:31:48;19.50;;;9.73;;
55756;SDS011;41676;44.610;44.078;2023-02-28T04:36:48;15.80;;;9.32;;
55756;SDS011;41676;44.610;44.078;2023-02-28T04:41:50;20.42;;;9.32;;
55756;SDS011;41676;44.610;44.078;2023-02-28T04:46:51;16.95;;;9.95;;
55756;SDS011;41676;44.610;44.078;2023-02-28T04:51:52;20.30;;;8.90;;
55756;SDS011;41676;44.610;44.078;2023-02-28T04:56:53;17.73;;;9.23;;
55756;SDS011;41676;44.610;44.078;2023-02-28T05:01:54;20.38;;;10.20;;
55756;SDS011;41676;44.610;44.078;2023-02-28T05:06:55;20.15;;;10.68;;
55756;SDS011;41676;44.610;44.078;2023-02-28T05:11:56;18.42;;;9.75;;
55756;SDS011;41676;44.610;44.078;2023-02-28T05:16:57;20.63;;;9.77;;
55756;SDS011;41676;44.610;44.078;2023-02-28T05:21:58;21.55;;;10.82;;
55756;SDS011;41676;44.610;44.078;2023-02-28T05:26:59;15.00;;;9.77;;
55756;SDS011;41676;44.610;44.078;2023-02-28T05:32:00;18.27;;;8.80;;
55756;SDS011;41676;44.610;44.078;2023-02-28T05:37:00;14.60;;;8.48;;
55756;SDS011;41676;44.610;44.078;2023-02-28T05:42:01;19.60;;;9.60;;
55756;SDS011;41676;44.610;44.078;2023-02-28T05:47:02;16.85;;;9.63;;
55756;SDS011;41676;44.610;44.078;2023-02-28T05:52:03;17.50;;;9.65;;
55756;SDS011;41676;44.610;44.078;2023-02-28T05:57:04;18.30;;;9.63;;
55756;SDS011;41676;44.610;44.078;2023-02-28T06:02:05;20.60;;;10.10;;
55756;SDS011;41676;44.610;44.078;2023-02-28T06:07:11;15.98;;;10.05;;
55756;SDS011;41676;44.610;44.078;2023-02-28T06:12:11;18.02;;;10.52;;
55756;SDS011;41676;44.610;44.078;2023-02-28T06:17:12;26.25;;;11.75;;
55756;SDS011;41676;44.610;44.078;2023-02-28T06:22:13;19.75;;;10.30;;
55756;SDS011;41676;44.610;44.078;2023-02-28T06:27:14;25.65;;;11.45;;
55756;SDS011;41676;44.610;44.078;2023-02-28T06:32:14;16.70;;;10.10;;
55756;SDS011;41676;44.610;44.078;2023-02-28T06:37:15;15.88;;;9.43;;
55756;SDS011;41676;44.610;44.078;2023-02-28T06:42:16;15.82;;;9.30;;
55756;SDS011;41676;44.610;44.078;2023-02-28T06:47:17;16.52;;;10.13;;
55756;SDS011;41676;44.610;44.078;2023-02-28T06:52:18;18.63;;;10.45;;
55756;SDS011;41676;44.610;44.078;2023-02-28T06:57:18;15.90;;;9.95;;
55756;SDS011;41676;44.610;44.078;2023-02-28T07:02:19;16.55;;;9.60;;
55756;SDS011;41676;44.610;44.078;2023-02-28T07:07:20;15.50;;;9.77;;
55756;SDS011;41676;44.610;44.078;2023-02-28T07:12:21;13.55;;;8.68;;
55756;SDS011;41676;44.610;44.078;2023-02-28T07:17:22;14.27;;;9.25;;
55756;SDS011;41676;44.610;44.078;2023-02-28T07:22:23;15.90;;;9.85;;
55756;SDS011;41676;44.610;44.078;2023-02-28T07:27:25;14.60;;;9.02;;
55756;SDS011;41676;44.610;44.078;2023-02-28T07:32:28;15.43;;;9.77;;
55756;SDS011;41676;44.610;44.078;2023-02-28T07:37:28;17.67;;;9.30;;
55756;SDS011;41676;44.610;44.078;2023-02-28T07:42:31;16.75;;;9.40;;
55756;SDS011;41676;44.610;44.078;2023-02-28T07:47:32;15.93;;;9.95;;
55756;SDS011;41676;44.610;44.078;2023-02-28T07:52:33;26.40;;;9.32;;
55756;SDS011;41676;44.610;44.078;2023-02-28T07:57:33;16.33;;;9.35;;
55756;SDS011;41676;44.610;44.078;2023-02-28T08:02:34;14.60;;;8.30;;
55756;SDS011;41676;44.610;44.078;2023-02-28T08:07:35;14.10;;;9.18;;
55756;SDS011;41676;44.610;44.078;2023-02-28T08:12:36;17.92;;;9.38;;
55756;SDS011;41676;44.610;44.078;2023-02-28T08:17:37;16.20;;;10.02;;
55756;SDS011;41676;44.610;44.078;2023-02-28T08:22:38;24.48;;;8.63;;
55756;SDS011;41676;44.610;44.078;2023-02-28T08:27:38;17.35;;;9.25;;
55756;SDS011;41676;44.610;44.078;2023-02-28T08:32:39;18.50;;;9.48;;
55756;SDS011;41676;44.610;44.078;2023-02-28T08:37:41;15.07;;;9.15;;
55756;SDS011;41676;44.610;44.078;2023-02-28T08:42:41;13.30;;;8.10;;
55756;SDS011;41676;44.610;44.078;2023-02-28T08:47:42;14.18;;;8.00;;
55756;SDS011;41676;44.610;44.078;2023-02-28T08:52:43;15.27;;;8.70;;
55756;SDS011;41676;44.610;44.078;2023-02-28T08:57:44;16.15;;;8.45;;
55756;SDS011;41676;44.610;44.078;2023-02-28T09:02:45;20.45;;;8.80;;
55756;SDS011;41676;44.610;44.078;2023-02-28T09:07:46;13.25;;;8.68;;
55756;SDS011;41676;44.610;44.078;2023-02-28T09:12:46;14.35;;;8.40;;
55756;SDS011;41676;44.610;44.078;2023-02-28T09:17:47;20.77;;;8.38;;
55756;SDS011;41676;44.610;44.078;2023-02-28T09:22:48;18.02;;;7.72;;
55756;SDS011;41676;44.610;44.078;2023-02-28T09:27:48;20.90;;;12.75;;
55756;SDS011;41676;44.610;44.078;2023-02-28T09:32:49;14.57;;;7.90;;
55756;SDS011;41676;44.610;44.078;2023-02-28T09:37:53;14.38;;;7.40;;
55756;SDS011;41676;44.610;44.078;2023-02-28T09:42:55;11.07;;;6.80;;
55756;SDS011;41676;44.610;44.078;2023-02-28T09:48:10;15.80;;;8.00;;
55756;SDS011;41676;44.610;44.078;2023-02-28T09:53:29;12.15;;;7.20;;
55756;SDS011;41676;44.610;44.078;2023-02-28T10:03:42;14.05;;;6.72;;
55756;SDS011;41676;44.610;44.078;2023-02-28T10:09:01;22.67;;;7.18;;
55756;SDS011;41676;44.610;44.078;2023-02-28T10:24:23;12.25;;;6.22;;
55756;SDS011;41676;44.610;44.078;2023-02-28T10:29:31;9.30;;;6.32;;
55756;SDS011;41676;44.610;44.078;2023-02-28T10:34:33;10.15;;;6.90;;
55756;SDS011;41676;44.610;44.078;2023-02-28T10:39:41;15.00;;;7.10;;
55756;SDS011;41676;44.610;44.078;2023-02-28T10:44:48;12.70;;;6.57;;
55756;SDS011;41676;44.610;44.078;2023-02-28T10:49:49;19.38;;;6.95;;
55756;SDS011;41676;44.610;44.078;2023-02-28T10:54:52;8.93;;;6.00;;
55756;SDS011;41676;44.610;44.078;2023-02-28T11:00:25;8.80;;;6.53;;
55756;SDS011;41676;44.610;44.078;2023-02-28T11:05:34;9.73;;;6.53;;
55756;SDS011;41676;44.610;44.078;2023-02-28T11:10:36;13.67;;;6.83;;
55756;SDS011;41676;44.610;44.078;2023-02-28T11:15:38;7.68;;;5.35;;
55756;SDS011;41676;44.610;44.078;2023-02-28T11:20:38;8.23;;;5.93;;
55756;SDS011;41676;44.610;44.078;2023-02-28T11:25:40;11.10;;;5.97;;
55756;SDS011;41676;44.610;44.078;2023-02-28T11:31:36;8.98;;;4.95;;
55756;SDS011;41676;44.610;44.078;2023-02-28T11:36:15;7.63;;;4.93;;
55756;SDS011;41676;44.610;44.078;2023-02-28T11:57:56;32.55;;;6.75;;
55756;SDS011;41676;44.610;44.078;2023-02-28T12:18:58;8.73;;;4.80;;
55756;SDS011;41676;44.610;44.078;2023-02-28T12:24:05;12.32;;;5.72;;
55756;SDS011;41676;44.610;44.078;2023-02-28T12:29:40;36.97;;;6.60;;
55756;SDS011;41676;44.610;44.078;2023-02-28T12:34:50;20.25;;;8.30;;
55756;SDS011;41676;44.610;44.078;2023-02-28T12:40:03;33.08;;;9.13;;
55756;SDS011;41676;44.610;44.078;2023-02-28T12:50:22;11.27;;;7.20;;
55756;SDS011;41676;44.610;44.078;2023-02-28T13:00:35;19.00;;;6.97;;
55756;SDS011;41676;44.610;44.078;2023-02-28T13:11:22;12.52;;;6.40;;
55756;SDS011;41676;44.610;44.078;2023-02-28T13:16:50;27.30;;;12.88;;
55756;SDS011;41676;44.610;44.078;2023-02-28T13:22:19;24.42;;;12.80;;
55756;SDS011;41676;44.610;44.078;2023-02-28T13:27:22;22.45;;;10.05;;
55756;SDS011;41676;44.610;44.078;2023-02-28T13:32:31;40.22;;;11.43;;
55756;SDS011;41676;44.610;44.078;2023-02-28T13:37:35;24.80;;;10.02;;
55756;SDS011;41676;44.610;44.078;2023-02-28T13:47:50;26.15;;;9.65;;
55756;SDS011;41676;44.610;44.078;2023-02-28T13:53:11;50.42;;;16.73;;
55756;SDS011;41676;44.610;44.078;2023-02-28T14:04:14;31.25;;;16.13;;
55756;SDS011;41676;44.610;44.078;2023-02-28T14:09:41;34.03;;;15.85;;
55756;SDS011;41676;44.610;44.078;2023-02-28T14:19:49;33.53;;;15.48;;
55756;SDS011;41676;44.610;44.078;2023-02-28T14:25:01;23.52;;;11.43;;
55756;SDS011;41676;44.610;44.078;2023-02-28T14:40:56;21.10;;;10.00;;
55756;SDS011;41676;44.610;44.078;2023-02-28T14:46:01;18.02;;;10.57;;
55756;SDS011;41676;44.610;44.078;2023-02-28T14:56:05;36.80;;;13.60;;
55756;SDS011;41676;44.610;44.078;2023-02-28T15:01:09;51.30;;;11.32;;
55756;SDS011;41676;44.610;44.078;2023-02-28T15:11:17;40.88;;;14.75;;
55756;SDS011;41676;44.610;44.078;2023-02-28T15:21:26;31.13;;;15.23;;
55756;SDS011;41676;44.610;44.078;2023-02-28T15:26:34;37.05;;;13.90;;
55756;SDS011;41676;44.610;44.078;2023-02-28T15:31:49;46.47;;;15.48;;
55756;SDS011;41676;44.610;44.078;2023-02-28T15:42:33;31.05;;;14.57;;
55756;SDS011;41676;44.610;44.078;2023-02-28T15:47:34;41.88;;;17.85;;
55756;SDS011;41676;44.610;44.078;2023-02-28T15:52:43;76.25;;;17.23;;
55756;SDS011;41676;44.610;44.078;2023-02-28T15:57:46;45.97;;;16.45;;
55756;SDS011;41676;44.610;44.078;2023-02-28T16:02:50;41.97;;;16.38;;
55756;SDS011;41676;44.610;44.078;2023-02-28T16:07:51;43.92;;;14.25;;
55756;SDS011;41676;44.610;44.078;2023-02-28T16:12:52;47.53;;;21.42;;
55756;SDS011;41676;44.610;44.078;2023-02-28T16:17:57;41.30;;;14.25;;
55756;SDS011;41676;44.610;44.078;2023-02-28T16:22:58;30.90;;;10.18;;
55756;SDS011;41676;44.610;44.078;2023-02-28T16:33:04;32.10;;;9.93;;
55756;SDS011;41676;44.610;44.078;2023-02-28T16:38:06;28.70;;;11.30;;
55756;SDS011;41676;44.610;44.078;2023-02-28T16:43:07;21.08;;;9.75;;
55756;SDS011;41676;44.610;44.078;2023-02-28T16:48:16;25.45;;;10.57;;
55756;SDS011;41676;44.610;44.078;2023-02-28T16:53:17;18.73;;;8.95;;
55756;SDS011;41676;44.610;44.078;2023-02-28T16:58:17;24.50;;;8.68;;
55756;SDS011;41676;44.610;44.078;2023-02-28T17:03:25;19.00;;;7.17;;
55756;SDS011;41676;44.610;44.078;2023-02-28T17:08:27;15.43;;;6.22;;
55756;SDS011;41676;44.610;44.078;2023-02-28T17:13:29;49.25;;;7.95;;
55756;SDS011;41676;44.610;44.078;2023-02-28T17:18:32;12.35;;;6.05;;
55756;SDS011;41676;44.610;44.078;2023-02-28T17:23:34;13.82;;;5.57;;
55756;SDS011;41676;44.610;44.078;2023-02-28T17:28:35;10.02;;;5.68;;
55756;SDS011;41676;44.610;44.078;2023-02-28T17:33:36;9.00;;;6.05;;
55756;SDS011;41676;44.610;44.078;2023-02-28T17:38:37;14.55;;;6.00;;
55756;SDS011;41676;44.610;44.078;2023-02-28T17:43:39;10.95;;;6.32;;
55756;SDS011;41676;44.610;44.078;2023-02-28T17:48:41;9.77;;;5.85;;
55756;SDS011;41676;44.610;44.078;2023-02-28T17:53:41;10.05;;;5.93;;
55756;SDS011;41676;44.610;44.078;2023-02-28T17:58:42;10.25;;;6.07;;
55756;SDS011;41676;44.610;44.078;2023-02-28T18:03:45;11.63;;;6.13;;
55756;SDS011;41676;44.610;44.078;2023-02-28T18:08:47;12.43;;;6.45;;
55756;SDS011;41676;44.610;44.078;2023-02-28T18:13:52;18.45;;;6.63;;
55756;SDS011;41676;44.610;44.078;2023-02-28T18:18:54;10.60;;;5.82;;
55756;SDS011;41676;44.610;44.078;2023-02-28T18:23:56;8.70;;;5.65;;
55756;SDS011;41676;44.610;44.078;2023-02-28T18:28:57;19.42;;;6.53;;
55756;SDS011;41676;44.610;44.078;2023-02-28T18:33:58;10.68;;;5.75;;
55756;SDS011;41676;44.610;44.078;2023-02-28T18:38:59;26.67;;;7.47;;
55756;SDS011;41676;44.610;44.078;2023-02-28T18:44:00;40.63;;;17.50;;
55756;SDS011;41676;44.610;44.078;2023-02-28T18:49:01;64.28;;;24.17;;
55756;SDS011;41676;44.610;44.078;2023-02-28T18:54:02;217.18;;;73.28;;
55756;SDS011;41676;44.610;44.078;2023-02-28T18:59:03;74.78;;;26.60;;
55756;SDS011;41676;44.610;44.078;2023-02-28T19:04:04;18.45;;;9.32;;
55756;SDS011;41676;44.610;44.078;2023-02-28T19:09:05;15.55;;;7.60;;
55756;SDS011;41676;44.610;44.078;2023-02-28T19:14:07;213.48;;;69.43;;
55756;SDS011;41676;44.610;44.078;2023-02-28T19:19:08;112.45;;;40.88;;
55756;SDS011;41676;44.610;44.078;2023-02-28T19:24:09;182.57;;;68.90;;
55756;SDS011;41676;44.610;44.078;2023-02-28T19:29:10;61.53;;;24.20;;
55756;SDS011;41676;44.610;44.078;2023-02-28T19:34:10;79.15;;;30.40;;
55756;SDS011;41676;44.610;44.078;2023-02-28T19:39:11;75.95;;;29.70;;
55756;SDS011;41676;44.610;44.078;2023-02-28T19:44:12;34.33;;;14.68;;
55756;SDS011;41676;44.610;44.078;2023-02-28T19:49:13;22.58;;;11.20;;
55756;SDS011;41676;44.610;44.078;2023-02-28T19:54:13;17.60;;;8.23;;
55756;SDS011;41676;44.610;44.078;2023-02-28T19:59:14;14.07;;;8.38;;
55756;SDS011;41676;44.610;44.078;2023-02-28T20:04:15;17.83;;;8.05;;
55756;SDS011;41676;44.610;44.078;2023-02-28T20:09:16;12.88;;;7.95;;
55756;SDS011;41676;44.610;44.078;2023-02-28T20:14:17;11.50;;;8.18;;
55756;SDS011;41676;44.610;44.078;2023-02-28T20:19:18;16.08;;;8.13;;
55756;SDS011;41676;44.610;44.078;2023-02-28T20:24:18;14.27;;;7.85;;
55756;SDS011;41676;44.610;44.078;2023-02-28T20:29:24;12.93;;;8.00;;
55756;SDS011;41676;44.610;44.078;2023-02-28T20:34:25;14.73;;;8.88;;
55756;SDS011;41676;44.610;44.078;2023-02-28T20:39:26;13.60;;;7.95;;
55756;SDS011;41676;44.610;44.078;2023-02-28T20:44:27;15.52;;;8.82;;
55756;SDS011;41676;44.610;44.078;2023-02-28T20:49:27;15.60;;;8.57;;
55756;SDS011;41676;44.610;44.078;2023-02-28T20:54:29;14.95;;;9.07;;
55756;SDS011;41676;44.610;44.078;2023-02-28T20:59:30;13.32;;;9.25;;
55756;SDS011;41676;44.610;44.078;2023-02-28T21:04:31;19.27;;;10.80;;
55756;SDS011;41676;44.610;44.078;2023-02-28T21:09:31;14.98;;;10.10;;
55756;SDS011;41676;44.610;44.078;2023-02-28T21:14:32;21.08;;;12.88;;
55756;SDS011;41676;44.610;44.078;2023-02-28T21:19:33;61.75;;;29.83;;
55756;SDS011;41676;44.610;44.078;2023-02-28T21:24:34;54.65;;;24.80;;
55756;SDS011;41676;44.610;44.078;2023-02-28T21:29:34;74.45;;;31.83;;
55756;SDS011;41676;44.610;44.078;2023-02-28T21:34:35;45.25;;;23.70;;
55756;SDS011;41676;44.610;44.078;2023-02-28T21:39:36;56.75;;;24.90;;
55756;SDS011;41676;44.610;44.078;2023-02-28T21:44:37;20.92;;;12.18;;
55756;SDS011;41676;44.610;44.078;2023-02-28T21:49:37;21.80;;;11.90;;
55756;SDS011;41676;44.610;44.078;2023-02-28T21:54:38;19.65;;;11.35;;
55756;SDS011;41676;44.610;44.078;2023-02-28T21:59:39;34.85;;;14.15;;
55756;SDS011;41676;44.610;44.078;2023-02-28T22:04:40;23.48;;;14.45;;
55756;SDS011;41676;44.610;44.078;2023-02-28T22:09:41;29.30;;;17.02;;
55756;SDS011;41676;44.610;44.078;2023-02-28T22:14:42;53.53;;;26.40;;
55756;SDS011;41676;44.610;44.078;2023-02-28T22:19:44;96.70;;;39.80;;
55756;SDS011;41676;44.610;44.078;2023-02-28T22:24:45;118.70;;;46.85;;
55756;SDS011;41676;44.610;44.078;2023-02-28T22:29:45;132.60;;;52.78;;
55756;SDS011;41676;44.610;44.078;2023-02-28T22:34:50;117.05;;;51.53;;
55756;SDS011;41676;44.610;44.078;2023-02-28T22:39:51;207.13;;;82.55;;
55756;SDS011;41676;44.610;44.078;2023-02-28T22:44:52;185.50;;;73.53;;
55756;SDS011;41676;44.610;44.078;2023-02-28T22:49:52;109.13;;;50.65;;
55756;SDS011;41676;44.610;44.078;2023-02-28T22:54:53;164.52;;;70.47;;
55756;SDS011;41676;44.610;44.078;2023-02-28T22:59:54;133.75;;;60.65;;
55756;SDS011;41676;44.610;44.078;2023-02-28T23:04:55;82.80;;;39.05;;
55756;SDS011;41676;44.610;44.078;2023-02-28T23:09:55;65.43;;;32.30;;
55756;SDS011;41676;44.610;44.078;2023-02-28T23:14:56;34.85;;;19.20;;
55756;SDS011;41676;44.610;44.078;2023-02-28T23:19:57;126.30;;;58.00;;
55756;SDS011;41676;44.610;44.078;2023-02-28T23:24:58;33.65;;;20.25;;
55756;SDS011;41676;44.610;44.078;2023-02-28T23:29:59;32.45;;;19.35;;
55756;SDS011;41676;44.610;44.078;2023-02-28T23:34:59;113.78;;;50.35;;
55756;SDS011;41676;44.610;44.078;2023-02-28T23:40:01;81.40;;;38.42;;
55756;SDS011;41676;44.610;44.078;2023-02-28T23:45:03;87.72;;;42.25;;
55756;SDS011;41676;44.610;44.078;2023-02-28T23:50:04;75.75;;;29.30;;
55756;SDS011;41676;44.610;44.078;2023-02-28T23:55:05;42.55;;;22.27;;
